Center Ossipee, NH

12:31 AM EST on January 31, 2015 (GMT -0500)
Ossipee Woods | Change Station
CLOSE
Current Station
Personal Weather Station
Location: Ossipee, NH
Elevation: 653 ft
Nearby Weather Stations
Active Advisory: Winter Weather Advisory Active Notice: Public Information Statement

Elev 653 ft 43.69 °N, 71.10 °W | Updated 1 minute ago

Snow
Snow
18.3 °F
Feels Like 18 °F
N
0.0
Wind Variable Wind from West
Gusts 16.0 mph

Today
High -- | Low -- °F
--% Chance of Precip.
Yesterday
High -- | Low -- °F
Precip. -- in
7:02 AM 4:53 PM
Waxing Gibbous, 87% visible
Pressure 29.76 in
Visibility 2.5 miles
Clouds Overcast 2700 ft
Windchill 18 °F
Dew Point 12 °F
Humidity 77%
Rainfall 0.00 in
Snow Depth Not available.
UV 0 out of 12
Pollen .10 out of 12
Air Quality Not available.
Flu Activity Not available.
METAR KIZG 310454Z AUTO 00000KT 2 1/2SM -SN OVC027 M07/M11 A2974 RMK AO2 SLP077 P0000 T10721106 410171072

More Conditions Fewer Conditions

Pressure 29.76 in
Visibility 2.5 miles
Clouds Overcast 2700 ft
Windchill 18 °F
Dew Point 12 °F
Humidity 77%
Rainfall 0.00 in
Snow Depth Not available.
UV 0 out of 12
Pollen .10 out of 12
Air Quality Not available.
Flu Activity Not available.
METAR KIZG 310454Z AUTO 00000KT 2 1/2SM -SN OVC027 M07/M11 A2974 RMK AO2 SLP077 P0000 T10721106 410171072

More Conditions Fewer Conditions

10-Day Weather Forecast

Almanac

Astronomy

Jan. 31, 2015 Rise Set
Actual Time
Civil Twilight
Nautical Twilight
Astronomical Twilight
Moon
Length of Visible Light
Length of Day
Tomorrow will be .
, % of the Moon is Illuminated

Today's Extremes

State Highs State Lows

Community

WunderPhotos

Upload Photos

1,792,005 photos uploaded!

WunderBlogs® & News

Nearby

Air Quality

  Air Quality AQ Index Pollutant
Not available.

Snow Depth

Station Depth Elevation

Earthquake Activity

City Distance Mag. Time & Date
Minimum magnitude displayed is 2.5.

Coastal Water Temperatures

Place Temperature

Nearby Weather Stations